createdAt,value
2018-03-04T00:00:13.709Z,50.50
2018-03-04T00:04:56.968Z,50.53
2018-03-04T00:09:41.202Z,55.97
2018-03-04T00:14:24.652Z,49.23
2018-03-04T00:19:08.298Z,48.93
2018-03-04T00:23:52.750Z,51.30
2018-03-04T00:28:36.316Z,48.03
2018-03-04T00:33:19.986Z,51.33
2018-03-04T00:38:03.395Z,58.20
2018-03-04T00:42:47.041Z,48.43
2018-03-04T00:47:31.623Z,54.87
2018-03-04T00:52:15.082Z,61.40
2018-03-04T00:57:01.572Z,50.33
2018-03-04T01:01:47.621Z,45.03
2018-03-04T01:06:32.022Z,54.37
2018-03-04T01:11:17.454Z,54.87
2018-03-04T01:16:00.917Z,52.67
2018-03-04T01:20:47.767Z,55.50
2018-03-04T01:25:31.248Z,43.67
2018-03-04T01:30:14.603Z,48.20
2018-03-04T01:34:58.704Z,47.40
2018-03-04T01:39:42.048Z,54.67
2018-03-04T01:44:25.434Z,51.20
2018-03-04T01:49:08.742Z,41.63
2018-03-04T01:53:52.142Z,51.37
2018-03-04T01:58:35.545Z,49.73
2018-03-04T02:03:18.875Z,46.07
2018-03-04T02:08:02.215Z,45.70
2018-03-04T02:12:45.565Z,39.23
2018-03-04T02:17:28.900Z,52.00
2018-03-04T02:22:12.231Z,50.83
2018-03-04T02:26:55.578Z,43.00
2018-03-04T02:31:38.942Z,45.73
2018-03-04T02:36:22.324Z,48.33
2018-03-04T02:41:05.905Z,50.37
2018-03-04T02:45:49.279Z,47.57
2018-03-04T02:50:34.008Z,49.90
2018-03-04T02:55:17.732Z,47.17
2018-03-04T03:00:01.128Z,47.50
2018-03-04T03:04:44.473Z,51.27
2018-03-04T03:09:27.890Z,45.37
2018-03-04T03:14:11.278Z,46.30
2018-03-04T03:18:54.722Z,43.63
2018-03-04T03:23:38.124Z,45.07
2018-03-04T03:28:21.560Z,46.17
2018-03-04T03:33:04.872Z,50.20
2018-03-04T03:37:48.271Z,48.00
2018-03-04T03:42:32.383Z,43.77
2018-03-04T03:47:15.718Z,47.70
2018-03-04T03:51:59.106Z,52.73
2018-03-04T03:56:43.179Z,44.97
2018-03-04T04:01:27.326Z,46.17
2018-03-04T04:06:11.448Z,42.80
2018-03-04T04:10:54.787Z,55.03
2018-03-04T04:15:38.186Z,47.60
2018-03-04T04:20:21.550Z,48.60
2018-03-04T04:25:04.864Z,48.03
2018-03-04T04:29:48.239Z,50.00
2018-03-04T04:34:31.584Z,49.30
2018-03-04T04:39:14.946Z,45.87
2018-03-04T04:43:58.401Z,49.87
2018-03-04T04:48:42.513Z,52.63
2018-03-04T04:53:25.814Z,54.00
2018-03-04T04:58:09.963Z,45.53
2018-03-04T05:02:54.106Z,49.07
2018-03-04T05:07:37.450Z,48.10
2018-03-04T05:12:20.825Z,50.17
2018-03-04T05:17:04.959Z,52.13
2018-03-04T05:21:48.294Z,50.97
2018-03-04T05:26:31.675Z,49.57
2018-03-04T05:31:15.022Z,50.20
2018-03-04T05:35:58.400Z,54.10
2018-03-04T05:40:41.732Z,48.27
2018-03-04T05:45:25.093Z,48.23
2018-03-04T05:50:08.412Z,51.07
2018-03-04T05:54:51.766Z,51.03
2018-03-04T05:59:35.107Z,47.57
2018-03-04T06:04:18.688Z,54.27
2018-03-04T06:09:02.741Z,53.30
2018-03-04T06:13:47.030Z,49.27
2018-03-04T06:18:30.349Z,52.80
2018-03-04T06:23:13.678Z,46.37
2018-03-04T06:27:57.780Z,52.73
2018-03-04T06:32:41.145Z,49.63
2018-03-04T06:37:24.703Z,51.33
2018-03-04T06:42:08.029Z,48.90
2018-03-04T06:46:51.391Z,52.97
2018-03-04T06:51:34.825Z,46.67
2018-03-04T06:56:18.181Z,52.70
2018-03-04T07:01:02.245Z,52.07
2018-03-04T07:05:46.381Z,55.17
2018-03-04T07:10:29.886Z,45.00
2018-03-04T07:15:13.267Z,49.30
2018-03-04T07:19:57.492Z,48.77
2018-03-04T07:24:40.926Z,49.50
2018-03-04T07:29:24.281Z,51.97
2018-03-04T07:34:07.670Z,48.70
2018-03-04T07:38:51.838Z,52.30
2018-03-04T07:43:46.546Z,51.40
2018-03-04T07:48:30.456Z,52.60
2018-03-04T07:53:14.681Z,56.83
2018-03-04T07:57:59.389Z,53.20
2018-03-04T08:02:42.698Z,53.87
2018-03-04T08:07:26.030Z,48.97
2018-03-04T08:12:09.389Z,51.73
2018-03-04T08:16:52.767Z,55.53
2018-03-04T08:21:36.210Z,49.30
2018-03-04T08:31:24.593Z,53.27
2018-03-04T08:36:08.036Z,51.33
2018-03-04T08:40:52.357Z,55.57
2018-03-04T08:45:35.753Z,48.30
2018-03-04T08:50:20.299Z,50.33
2018-03-04T08:55:03.674Z,50.60
2018-03-04T09:09:23.805Z,53.93
2018-03-04T09:14:07.630Z,48.67
2018-03-04T09:18:51.337Z,52.70
2018-03-04T09:23:35.034Z,54.07
2018-03-04T09:28:18.417Z,55.83
2018-03-04T09:33:01.866Z,51.53
2018-03-04T09:42:35.460Z,51.73
2018-03-04T09:47:18.796Z,50.53
2018-03-04T09:52:02.168Z,54.77
2018-03-04T09:56:45.589Z,49.97
2018-03-04T10:01:29.040Z,55.60
2018-03-04T10:06:12.421Z,49.57
2018-03-04T10:10:56.508Z,53.83
2018-03-04T10:15:39.852Z,51.90
2018-03-04T10:20:23.635Z,47.83
2018-03-04T10:25:07.871Z,46.53
2018-03-04T10:29:51.215Z,51.93
2018-03-04T10:34:35.268Z,49.43
2018-03-04T10:39:18.611Z,48.30
2018-03-04T10:44:01.947Z,46.40
2018-03-04T10:48:45.331Z,44.50
2018-03-04T10:53:29.600Z,46.23
2018-03-04T10:58:13.735Z,43.50
2018-03-04T11:02:59.237Z,41.40
2018-03-04T11:07:42.628Z,38.40
2018-03-04T11:12:26.078Z,34.63
2018-03-04T11:17:09.648Z,37.17
2018-03-04T11:21:53.917Z,35.77
2018-03-04T11:26:38.159Z,41.40
2018-03-04T11:31:23.404Z,39.67
2018-03-04T11:36:10.485Z,42.03
2018-03-04T11:40:54.723Z,40.40
2018-03-04T11:45:38.960Z,35.47
2018-03-04T11:50:23.185Z,40.83
2018-03-04T11:55:06.751Z,38.57
2018-03-04T11:59:51.074Z,38.40
2018-03-04T12:04:43.786Z,34.77
2018-03-04T12:09:27.530Z,36.93
2018-03-04T12:14:11.797Z,35.27
2018-03-04T12:18:55.193Z,33.40
2018-03-04T12:23:38.640Z,31.47
2018-03-04T12:28:30.875Z,34.50
2018-03-04T12:33:14.307Z,32.80
2018-03-04T12:37:58.639Z,36.90
2018-03-04T12:42:43.184Z,36.33
2018-03-04T12:47:27.360Z,33.30
2018-03-04T12:52:10.732Z,35.13
2018-03-04T12:56:54.107Z,33.30
2018-03-04T13:01:37.516Z,37.30
2018-03-04T13:06:20.905Z,39.63
2018-03-04T13:11:17.639Z,37.33
2018-03-04T13:16:01.087Z,33.67
2018-03-04T13:20:45.345Z,36.40
2018-03-04T13:25:28.846Z,35.83
2018-03-04T13:30:12.368Z,34.57
2018-03-04T13:34:56.125Z,36.50
2018-03-04T13:39:41.768Z,39.10
2018-03-04T13:44:44.984Z,39.27
2018-03-04T13:49:29.381Z,38.07
2018-03-04T13:54:12.819Z,40.60
2018-03-04T13:58:57.014Z,39.50
2018-03-04T14:03:40.692Z,46.07
2018-03-04T14:08:24.100Z,42.93
2018-03-04T14:13:08.927Z,39.73
2018-03-04T14:17:54.185Z,46.63
2018-03-04T14:22:37.681Z,46.40
2018-03-04T14:27:21.790Z,45.57
2018-03-04T14:32:05.181Z,50.23
2018-03-04T14:36:48.601Z,46.93
2018-03-04T14:41:32.855Z,49.33
2018-03-04T14:46:17.166Z,48.37
2018-03-04T14:51:01.428Z,45.57
2018-03-04T14:55:44.855Z,47.13
2018-03-04T15:00:28.993Z,48.13
2018-03-04T15:05:14.064Z,46.17
2018-03-04T15:09:58.187Z,40.80
2018-03-04T15:14:42.372Z,43.77
2018-03-04T15:19:26.688Z,46.90
2018-03-04T15:24:10.149Z,47.13
2018-03-04T15:28:53.542Z,48.93
2018-03-04T15:33:37.782Z,51.23
2018-03-04T15:38:21.144Z,47.27
2018-03-04T15:43:06.229Z,54.23
2018-03-04T15:47:50.454Z,49.30
2018-03-04T15:52:34.655Z,48.53
2018-03-04T15:57:18.215Z,52.37
2018-03-04T16:02:02.376Z,46.83
2018-03-04T16:06:45.796Z,47.93
2018-03-04T16:11:29.158Z,48.67
2018-03-04T16:16:12.609Z,49.10
2018-03-04T16:20:56.068Z,46.17
2018-03-04T16:25:39.584Z,49.33
2018-03-04T16:30:23.016Z,50.27
2018-03-04T16:35:07.345Z,48.23
2018-03-04T16:39:50.836Z,44.87
2018-03-04T16:44:34.253Z,45.83
2018-03-04T16:49:17.797Z,53.47
2018-03-04T16:54:02.057Z,46.27
2018-03-04T16:58:47.767Z,46.30
2018-03-04T17:03:40.106Z,47.40
2018-03-04T17:08:23.940Z,47.23
2018-03-04T17:13:08.434Z,56.03
2018-03-04T17:17:52.598Z,52.47
2018-03-04T17:22:38.308Z,53.03
2018-03-04T17:27:23.160Z,51.27
2018-03-04T17:32:08.230Z,54.33
2018-03-04T17:36:53.254Z,48.00
2018-03-04T17:41:38.126Z,48.40
2018-03-04T17:46:21.865Z,45.93
2018-03-04T17:56:03.486Z,53.57
2018-03-04T18:00:47.091Z,49.37
2018-03-04T18:05:31.447Z,45.23
2018-03-04T18:10:15.513Z,49.20
2018-03-04T18:14:59.901Z,46.10
2018-03-04T18:19:43.718Z,44.90
2018-03-04T18:24:28.315Z,44.13
2018-03-04T18:29:12.013Z,44.10
2018-03-04T18:33:55.644Z,45.27
2018-03-04T18:38:40.292Z,42.73
2018-03-04T18:43:24.671Z,49.60
2018-03-04T18:48:08.832Z,45.33
2018-03-04T18:52:52.333Z,46.33
2018-03-04T18:57:42.245Z,47.40
2018-03-04T19:02:34.811Z,47.87
2018-03-04T19:07:18.530Z,44.63
2018-03-04T19:12:02.324Z,43.43
2018-03-04T19:16:46.636Z,45.00
2018-03-04T19:21:32.339Z,47.43
2018-03-04T19:26:16.290Z,41.30
2018-03-04T19:31:01.087Z,45.30
2018-03-04T19:35:44.706Z,40.57
2018-03-04T19:40:28.400Z,43.70
2018-03-04T19:45:13.052Z,39.60
2018-03-04T19:49:58.011Z,41.00
2018-03-04T19:54:42.260Z,40.37
2018-03-04T19:59:25.829Z,38.00
2018-03-04T20:04:09.490Z,43.33
2018-03-04T20:08:53.384Z,46.93
2018-03-04T20:13:37.213Z,40.30
2018-03-04T20:18:20.980Z,41.63
2018-03-04T20:23:04.504Z,37.00
2018-03-04T20:27:48.310Z,38.27
2018-03-04T20:32:31.997Z,39.20
2018-03-04T20:37:18.277Z,40.53
2018-03-04T20:42:01.959Z,43.17
2018-03-04T20:46:46.228Z,44.80
2018-03-04T20:51:31.258Z,39.70
2018-03-04T20:56:17.886Z,39.90
2018-03-04T21:01:03.201Z,42.47
2018-03-04T21:05:46.711Z,43.30
2018-03-04T21:10:30.518Z,42.17
2018-03-04T21:15:15.509Z,42.07
2018-03-04T21:19:59.171Z,39.67
2018-03-04T21:24:42.687Z,42.67
2018-03-04T21:29:27.041Z,43.07
2018-03-04T21:34:11.409Z,39.50
2018-03-04T21:39:14.194Z,46.20
2018-03-04T21:54:14.939Z,44.77
2018-03-04T21:59:09.647Z,39.23
2018-03-04T22:03:58.555Z,47.10
2018-03-04T22:08:46.207Z,43.17
2018-03-04T22:13:37.458Z,44.57
2018-03-04T22:18:22.542Z,45.87
2018-03-04T22:23:18.669Z,49.03
2018-03-04T22:28:06.949Z,46.30
2018-03-04T22:33:08.201Z,47.67
2018-03-04T22:42:59.289Z,54.57
2018-03-04T22:47:47.205Z,49.83
2018-03-04T22:52:47.350Z,47.87
2018-03-04T22:57:37.440Z,49.87
2018-03-04T23:02:33.834Z,54.37
2018-03-04T23:07:21.910Z,54.93
2018-03-04T23:12:10.381Z,53.33
2018-03-04T23:26:55.737Z,54.60
2018-03-04T23:31:47.846Z,53.53
2018-03-04T23:36:31.500Z,53.53
2018-03-04T23:46:13.707Z,56.80
2018-03-04T23:51:02.909Z,59.53
